Bernard A — TCWN3 — position and weather

sailwx.info

Track history (hours):
 
Tides and Currents Weather Stations Pressure Air Temp Water Temp Dewpoint Dewpoint Depression Visibility Wind Speed Wind Dir Waves Ship Positions

Bernard A

Last reported at 2015-Apr-26 03:33 UTC. Time now 2015-May-05 07:14 UTC.
Position N 42°12' E 038°47'.
Warning: this ship's position is 9 days out of date.

Length 184 m; draft 8.2 m.

Type: Ship (hazmat cat A). MMSI: 271040008.

Date/timePositionNaut miles runAvg speedWind from/ knotsBaromVisibWave heightAir tempDewpointWater temp
2015-Apr-26 03:33N 42°12' E 038°47'1312.8
2015-Apr-26 02:33N 42°12' E 038°30'1312.6
2015-Apr-26 01:31N 42°12' E 038°12'1212.3
2015-Apr-26 00:33N 42°12' E 037°56'1412.6
2015-Apr-25 23:27N 42°12' E 037°37'1112.7
2015-Apr-25 22:33N 42°12' E 037°22'1312.7
2015-Apr-25 21:32N 42°12' E 037°05'1312.9
2015-Apr-25 20:33N 42°13' E 036°48'1313.3
2015-Apr-25 19:33N 42°13' E 036°30'1313.1
2015-Apr-25 18:33N 42°13' E 036°12'1313.1
2015-Apr-25 17:33N 42°12' E 035°54'1313.1
2015-Apr-25 16:33N 42°12' E 035°37'1313.0
2015-Apr-25 15:33N 42°12' E 035°19'1312.9
2015-Apr-25 14:33N 42°12' E 035°02'1312.8
2015-Apr-25 13:33N 42°11' E 034°45'1212.4
2015-Apr-25 12:33N 42°11' E 034°28'1312.5
2015-Apr-25 11:33N 42°10' E 034°11'21614.4
2015-Apr-24 20:34N 41°20' E 029°30'1414.3
2015-Apr-24 19:33N 41°16' E 029°12'2210.4
2015-Apr-24 17:26N 40°57' E 028°58'6 4.5
2015-Apr-24 16:12N 40°56' E 028°51'0 0.0
2015-Apr-24 15:18N 40°56' E 028°51'0 0.0
2015-Apr-24 14:30N 40°56' E 028°51'0 0.0
2015-Apr-24 12:18N 40°56' E 028°51'0 0.0
2015-Apr-24 11:30N 40°56' E 028°51'0 0.1
2015-Apr-24 10:06N 40°56' E 028°51'0 0.1
2015-Apr-24 09:18N 40°56' E 028°51'0 0.0
2015-Apr-24 08:30N 40°56' E 028°51'0 0.0
2015-Apr-24 06:18N 40°56' E 028°51'0 0.0
2015-Apr-24 05:30N 40°56' E 028°51'0 0.0
2015-Apr-24 04:06N 40°56' E 028°51'0 0.0
2015-Apr-24 03:30N 40°56' E 028°51'0 0.1
2015-Apr-24 02:24N 40°56' E 028°51'7 8.0
2015-Apr-24 01:30N 40°57' E 028°41'1 0.1
2015-Apr-23 11:16N 40°58' E 028°41'3 0.2
2015-Apr-22 16:33N 40°57' E 028°37'3 1.2
2015-Apr-22 14:26N 40°57' E 028°40'0 0.0
2015-Apr-22 06:26N 40°57' E 028°40'1 0.0
2015-Apr-21 11:32N 40°57' E 028°41'27214.2
2015-Apr-20 16:28N 37°49' E 024°26'1815.8
2015-Apr-20 15:20N 37°37' E 024°09'1012.4
2015-Apr-20 14:33N 37°36' E 023°57'1212.0
2015-Apr-20 13:33N 37°39' E 023°43'1211.7
2015-Apr-20 12:34N 37°50' E 023°37'7 7.1
2015-Apr-20 11:33N 37°57' E 023°35'0 0.0
2015-Apr-20 10:33N 37°57' E 023°35'0 0.0
2015-Apr-20 09:33N 37°57' E 023°35'0 0.0
2015-Apr-20 08:30N 37°57' E 023°35'0 0.0
2015-Apr-20 07:30N 37°57' E 023°35'0 0.0
2015-Apr-20 06:33N 37°57' E 023°35'0 0.0
2015-Apr-20 05:33N 37°57' E 023°35'0 0.0
2015-Apr-20 04:30N 37°57' E 023°35'0 0.0
2015-Apr-20 03:24N 37°57' E 023°35'0 0.0
2015-Apr-20 02:33N 37°57' E 023°35'0 0.0
2015-Apr-20 01:33N 37°57' E 023°35'0 0.0
2015-Apr-20 00:30N 37°57' E 023°35'0 0.0
2015-Apr-19 23:33N 37°57' E 023°35'0 0.0
2015-Apr-19 22:30N 37°57' E 023°35'0 0.0
2015-Apr-19 21:33N 37°57' E 023°35'0 0.0
2015-Apr-19 20:27N 37°57' E 023°35'0 0.0
2015-Apr-19 19:27N 37°57' E 023°35'3 3.6
2015-Apr-19 18:33N 37°54' E 023°37'1313.4
2015-Apr-19 17:33N 37°42' E 023°44'5714.1
2015-Apr-19 13:30N 37°15' E 024°48'1415.2
2015-Apr-19 12:33N 37°15' E 025°06'1515.0
2015-Apr-19 11:34N 37°15' E 025°24'1414.1
2015-Apr-19 10:33N 37°14' E 025°42'1413.6
2015-Apr-19 09:33N 37°08' E 025°57'1413.7
2015-Apr-19 08:34N 36°59' E 026°10'1413.6
2015-Apr-19 07:33N 36°51' E 026°24'1813.6
2015-Apr-19 06:15N 36°42' E 026°43'1513.6
2015-Apr-19 05:10N 36°34' E 026°58'3612.8
2015-Apr-19 02:21N 36°29' E 027°43'10311.3
2015-Apr-18 17:16N 35°59' E 029°45'  
Track history (hours):
 
Tides and Currents Weather Stations Pressure Air Temp Water Temp Dewpoint Dewpoint Depression Visibility Wind Speed Wind Dir Waves Ship Positions

Bernard A

Last reported at 2015-Apr-26 03:33 UTC. Time now 2015-May-05 07:14 UTC.
Position N 42°12' E 038°47'.
Warning: this ship's position is 9 days out of date.

Length 184 m; draft 8.2 m.

Type: Ship (hazmat cat A). MMSI: 271040008.

Date/timePositionNaut miles runAvg speedWind from/ knotsBaromVisibWave heightAir tempDewpointWater temp
2015-Apr-26 03:33N 42°12' E 038°47'1312.8
2015-Apr-26 02:33N 42°12' E 038°30'1312.6
2015-Apr-26 01:31N 42°12' E 038°12'1212.3
2015-Apr-26 00:33N 42°12' E 037°56'1412.6
2015-Apr-25 23:27N 42°12' E 037°37'1112.7
2015-Apr-25 22:33N 42°12' E 037°22'1312.7
2015-Apr-25 21:32N 42°12' E 037°05'1312.9
2015-Apr-25 20:33N 42°13' E 036°48'1313.3
2015-Apr-25 19:33N 42°13' E 036°30'1313.1
2015-Apr-25 18:33N 42°13' E 036°12'1313.1
2015-Apr-25 17:33N 42°12' E 035°54'1313.1
2015-Apr-25 16:33N 42°12' E 035°37'1313.0
2015-Apr-25 15:33N 42°12' E 035°19'1312.9
2015-Apr-25 14:33N 42°12' E 035°02'1312.8
2015-Apr-25 13:33N 42°11' E 034°45'1212.4
2015-Apr-25 12:33N 42°11' E 034°28'1312.5
2015-Apr-25 11:33N 42°10' E 034°11'21614.4
2015-Apr-24 20:34N 41°20' E 029°30'1414.3
2015-Apr-24 19:33N 41°16' E 029°12'2210.4
2015-Apr-24 17:26N 40°57' E 028°58'6 4.5
2015-Apr-24 16:12N 40°56' E 028°51'0 0.0
2015-Apr-24 15:18N 40°56' E 028°51'0 0.0
2015-Apr-24 14:30N 40°56' E 028°51'0 0.0
2015-Apr-24 12:18N 40°56' E 028°51'0 0.0
2015-Apr-24 11:30N 40°56' E 028°51'0 0.1
2015-Apr-24 10:06N 40°56' E 028°51'0 0.1
2015-Apr-24 09:18N 40°56' E 028°51'0 0.0
2015-Apr-24 08:30N 40°56' E 028°51'0 0.0
2015-Apr-24 06:18N 40°56' E 028°51'0 0.0
2015-Apr-24 05:30N 40°56' E 028°51'0 0.0
2015-Apr-24 04:06N 40°56' E 028°51'0 0.0
2015-Apr-24 03:30N 40°56' E 028°51'0 0.1
2015-Apr-24 02:24N 40°56' E 028°51'7 8.0
2015-Apr-24 01:30N 40°57' E 028°41'1 0.1
2015-Apr-23 11:16N 40°58' E 028°41'3 0.2
2015-Apr-22 16:33N 40°57' E 028°37'3 1.2
2015-Apr-22 14:26N 40°57' E 028°40'0 0.0
2015-Apr-22 06:26N 40°57' E 028°40'1 0.0
2015-Apr-21 11:32N 40°57' E 028°41'27214.2
2015-Apr-20 16:28N 37°49' E 024°26'1815.8
2015-Apr-20 15:20N 37°37' E 024°09'1012.4
2015-Apr-20 14:33N 37°36' E 023°57'1212.0
2015-Apr-20 13:33N 37°39' E 023°43'1211.7
2015-Apr-20 12:34N 37°50' E 023°37'7 7.1
2015-Apr-20 11:33N 37°57' E 023°35'0 0.0
2015-Apr-20 10:33N 37°57' E 023°35'0 0.0
2015-Apr-20 09:33N 37°57' E 023°35'0 0.0
2015-Apr-20 08:30N 37°57' E 023°35'0 0.0
2015-Apr-20 07:30N 37°57' E 023°35'0 0.0
2015-Apr-20 06:33N 37°57' E 023°35'0 0.0
2015-Apr-20 05:33N 37°57' E 023°35'0 0.0
2015-Apr-20 04:30N 37°57' E 023°35'0 0.0
2015-Apr-20 03:24N 37°57' E 023°35'0 0.0
2015-Apr-20 02:33N 37°57' E 023°35'0 0.0
2015-Apr-20 01:33N 37°57' E 023°35'0 0.0
2015-Apr-20 00:30N 37°57' E 023°35'0 0.0
2015-Apr-19 23:33N 37°57' E 023°35'0 0.0
2015-Apr-19 22:30N 37°57' E 023°35'0 0.0
2015-Apr-19 21:33N 37°57' E 023°35'0 0.0
2015-Apr-19 20:27N 37°57' E 023°35'0 0.0
2015-Apr-19 19:27N 37°57' E 023°35'3 3.6
2015-Apr-19 18:33N 37°54' E 023°37'1313.4
2015-Apr-19 17:33N 37°42' E 023°44'5714.1
2015-Apr-19 13:30N 37°15' E 024°48'1415.2
2015-Apr-19 12:33N 37°15' E 025°06'1515.0
2015-Apr-19 11:34N 37°15' E 025°24'1414.1
2015-Apr-19 10:33N 37°14' E 025°42'1413.6
2015-Apr-19 09:33N 37°08' E 025°57'1413.7
2015-Apr-19 08:34N 36°59' E 026°10'1413.6
2015-Apr-19 07:33N 36°51' E 026°24'1813.6
2015-Apr-19 06:15N 36°42' E 026°43'1513.6
2015-Apr-19 05:10N 36°34' E 026°58'3612.8
2015-Apr-19 02:21N 36°29' E 027°43'10311.3
2015-Apr-18 17:16N 35°59' E 029°45'  

Dump ship's entire track history